Redwood City, CA

10:31 PM PDT op 26 mei 2015 (GMT -0700)
San Carlos | | Change Station
CLOSE
Current Station
Luchthaven
Location: San Carlos,
Geometrische hoogte: 3 ft
Nabije weerstations

Hoogte 3 ft 37.51 °N, 122.25 °W | Updated 16 minutes ago

Helder
Helder
55 °F
Voelt als 55 °F
N
8
Wind Variabel Wind van west

Vandaag
Hoog -- | Laag -- °F
--% Kans op neerslag
Gisteren
Hoog -- | Laag -- °F
Precip. -- inches
5:52 AM 8:20 PM
Wassende maan, 64% visible
Druk 30.03 inches
Zicht 10.0 mijlen
Wolken Merendeels bewolkt 2500 ft
Dauwpunt 48 °F
Vochtigheid 77%
Neerslag 0.00 inches
Dikte sneeuw Niet beschikbaar.
UV 0 van de 12
Pollen 6.00 van de 12
Luchtkwaliteit Niet beschikbaar.
Flu Activity Sporadic
METAR KSQL 270515Z AUTO 26007KT 10SM BKN025 13/09 A3003 RMK AO2

More Conditions Fewer Conditions

Druk 30.03 inches
Zicht 10.0 mijlen
Wolken Merendeels bewolkt 2500 ft
Dauwpunt 48 °F
Vochtigheid 77%
Neerslag 0.00 inches
Dikte sneeuw Niet beschikbaar.
UV 0 van de 12
Pollen 6.00 van de 12
Luchtkwaliteit Niet beschikbaar.
Flu Activity Sporadic
METAR KSQL 270515Z AUTO 26007KT 10SM BKN025 13/09 A3003 RMK AO2

More Conditions Fewer Conditions

10-Day Weather Forecast

Almanac

Astronomie

May. 26, 2015 Opkomst Ondergang
Werkelijke tijd
Burgerlijke schemering
Nautische schemering
Astronomische schemering
Maan
Golflengte van het zichtbare licht
Daglengte
Tomorrow will be .
, % of the Moon is Illuminated

Extremen vandaag

State Highs State Lows

Community

WunderPhotos

Upload Photos

1,824,617 foto’s ge-upload!

WunderBlogs® & News

Nearby

Luchtkwaliteit

  Luchtkwaliteit LK-index Verontreinigende stof
Not available.

Dikte sneeuw

Station Depth Geometrische hoogte

Aardbevingen

Stad Distance Mag. Time & Date
Minimum magnitude displayed is 2.5.

Watertemperatuur langs de kust

Plaats Temperatuur

Stations

Nabije weerstations

Locatie station Temp. Gevoelstemperatuur Dauwpunt Vochtigheid Wind Precip. Hoogte Geactualiseerd Type